Time;durP1;ratioP1;P1;durP2;ratioP2;P2;SDS_P1;SDS_P2;PMS_P1;PMS_P2;Temp;Humidity;BMP_temperature;BMP_pressure;BME280_temperature;BME280_humidity;BME280_pressure;Samples;Min_cycle;Max_cycle;Signal;HPM_P1;HPM_P2
2021/12/30 00:01:14;;;;;;;21.02;7.75;;;10.70;93.00;;;;;;5116831;28;20418;-77
2021/12/30 00:03:40;;;;;;;25.83;8.38;;;10.70;93.20;;;;;;5098097;28;20055;-73
2021/12/30 00:06:07;;;;;;;22.80;9.63;;;10.70;92.90;;;;;;5116314;28;20028;-73
2021/12/30 00:08:34;;;;;;;26.92;8.95;;;10.70;92.90;;;;;;5098295;28;20034;-73
2021/12/30 00:11:00;;;;;;;29.13;9.50;;;10.70;92.90;;;;;;5097900;28;20020;-73
2021/12/30 00:13:27;;;;;;;28.58;10.77;;;10.70;92.90;;;;;;5116148;28;20024;-73
2021/12/30 00:15:53;;;;;;;25.80;9.57;;;10.60;92.90;;;;;;5097921;28;20123;-73
2021/12/30 00:18:19;;;;;;;32.15;11.98;;;10.70;93.00;;;;;;5097793;28;20069;-73
2021/12/30 00:20:46;;;;;;;26.00;10.88;;;10.70;93.00;;;;;;5116084;28;20027;-73
2021/12/30 00:23:11;;;;;;;24.50;9.77;;;10.70;93.00;;;;;;5115961;28;20039;-74
2021/12/30 00:25:41;;;;;;;34.28;11.95;;;10.70;93.00;;;;;;5097751;28;20023;-73
2021/12/30 00:28:16;;;;;;;33.97;12.75;;;10.70;93.00;;;;;;5115920;28;20023;-73
2021/12/30 00:30:43;;;;;;;31.88;12.23;;;10.80;93.00;;;;;;5097643;28;20023;-73
2021/12/30 00:33:09;;;;;;;36.05;12.20;;;10.80;93.00;;;;;;5115768;28;20023;-73
2021/12/30 00:35:35;;;;;;;31.40;12.27;;;10.80;93.00;;;;;;5097376;28;20061;-73
2021/12/30 00:38:02;;;;;;;31.52;12.52;;;10.90;93.00;;;;;;5097559;28;20023;-73
2021/12/30 00:40:28;;;;;;;28.88;12.48;;;10.90;93.00;;;;;;5115550;28;20024;-74
2021/12/30 00:42:53;;;;;;;30.45;11.00;;;10.90;93.00;;;;;;5097313;28;20026;-73
2021/12/30 00:45:19;;;;;;;26.35;10.30;;;10.90;93.00;;;;;;5097325;28;20487;-78
2021/12/30 00:47:45;;;;;;;24.52;10.40;;;11.00;93.00;;;;;;5115624;28;20040;-78
2021/12/30 00:50:11;;;;;;;27.27;9.90;;;11.00;93.00;;;;;;5097284;28;20023;-78
2021/12/30 00:52:37;;;;;;;24.00;10.48;;;11.10;93.00;;;;;;5097212;28;20100;-77
2021/12/30 00:55:04;;;;;;;28.13;9.75;;;11.00;92.90;;;;;;5115332;28;20122;-78
2021/12/30 00:57:30;;;;;;;22.55;9.05;;;11.10;92.90;;;;;;5097005;28;20115;-77
2021/12/30 00:59:55;;;;;;;17.30;8.38;;;11.10;92.90;;;;;;5097049;28;20051;-77
2021/12/30 01:02:21;;;;;;;23.70;9.80;;;11.20;92.90;;;;;;5115473;28;20027;-77
2021/12/30 01:04:46;;;;;;;25.48;9.20;;;11.20;92.90;;;;;;5115290;28;20509;-77
2021/12/30 01:07:12;;;;;;;23.40;8.73;;;11.20;92.90;;;;;;5115128;28;20031;-78
2021/12/30 01:09:38;;;;;;;22.65;8.48;;;11.20;92.90;;;;;;5115117;28;20049;-78
2021/12/30 01:12:04;;;;;;;23.42;9.20;;;11.20;92.90;;;;;;5097052;28;20030;-78
2021/12/30 01:14:31;;;;;;;23.42;8.70;;;11.30;92.90;;;;;;5114975;28;20364;-77
2021/12/30 01:17:11;;;;;;;25.17;8.00;;;11.30;92.90;;;;;;5114954;28;20020;-77
2021/12/30 01:19:42;;;;;;;26.10;8.23;;;11.30;92.80;;;;;;5113759;28;20043;-77
2021/12/30 01:22:26;;;;;;;22.10;7.22;;;11.30;92.80;;;;;;5096560;28;20386;-77
2021/12/30 01:24:52;;;;;;;26.60;7.60;;;11.40;92.80;;;;;;5096722;28;20070;-77
2021/12/30 01:27:19;;;;;;;20.60;6.68;;;11.40;92.80;;;;;;5096526;28;20031;-78
2021/12/30 01:29:46;;;;;;;19.52;6.25;;;11.40;92.80;;;;;;5114770;28;20035;-77
2021/12/30 01:32:11;;;;;;;22.00;6.63;;;11.40;92.80;;;;;;5114687;28;20023;-73
2021/12/30 01:34:37;;;;;;;24.63;6.43;;;11.50;92.80;;;;;;5114704;28;20035;-73
2021/12/30 01:37:05;;;;;;;24.35;7.93;;;11.50;92.80;;;;;;5114518;28;20502;-73
2021/12/30 01:39:33;;;;;;;22.23;6.75;;;11.50;92.80;;;;;;5114575;28;20022;-73
2021/12/30 01:41:59;;;;;;;25.55;6.88;;;11.50;92.80;;;;;;5096272;28;20450;-73
2021/12/30 01:44:28;;;;;;;24.83;7.22;;;11.50;92.80;;;;;;5096050;28;20019;-73
2021/12/30 01:46:54;;;;;;;22.98;6.80;;;11.50;92.80;;;;;;5114538;28;20034;-73
2021/12/30 01:49:21;;;;;;;24.20;7.43;;;11.60;92.80;;;;;;5096104;28;20028;-73
2021/12/30 01:51:48;;;;;;;23.83;7.15;;;11.60;92.80;;;;;;5113770;28;20471;-73
2021/12/30 01:54:14;;;;;;;22.95;7.13;;;11.60;92.80;;;;;;5095610;28;20112;-73
2021/12/30 01:56:40;;;;;;;24.85;8.27;;;11.60;92.80;;;;;;5095918;28;20102;-73
2021/12/30 01:59:06;;;;;;;30.88;8.88;;;11.60;92.80;;;;;;5096173;28;20051;-73
2021/12/30 02:01:33;;;;;;;22.27;7.50;;;11.70;92.90;;;;;;5114256;28;20035;-73
2021/12/30 02:03:59;;;;;;;21.52;7.10;;;11.70;92.90;;;;;;5095893;28;20033;-73
2021/12/30 02:06:25;;;;;;;22.05;7.30;;;11.70;92.80;;;;;;5095788;28;20036;-72
2021/12/30 02:08:51;;;;;;;25.52;8.10;;;11.70;92.80;;;;;;5113990;28;20019;-73
2021/12/30 02:11:18;;;;;;;24.92;8.27;;;11.70;92.80;;;;;;5113916;28;20027;-73
2021/12/30 02:13:46;;;;;;;22.88;7.88;;;11.70;92.80;;;;;;5095694;28;20016;-72
2021/12/30 02:16:12;;;;;;;26.83;8.18;;;11.80;92.90;;;;;;5095572;28;20418;-72
2021/12/30 02:18:37;;;;;;;24.48;7.95;;;11.80;92.90;;;;;;5095641;28;20036;-78
2021/12/30 02:21:04;;;;;;;26.08;8.43;;;11.80;92.90;;;;;;5095636;28;20098;-77
2021/12/30 02:23:31;;;;;;;33.05;9.63;;;11.80;92.90;;;;;;5095527;28;20121;-77
2021/12/30 02:26:08;;;;;;;25.52;9.60;;;11.80;92.90;;;;;;5095363;28;20191;-78
2021/12/30 02:28:36;;;;;;;37.53;11.30;;;11.80;92.90;;;;;;5114222;28;20020;-74
2021/12/30 02:31:06;;;;;;;34.45;10.88;;;11.80;92.90;;;;;;5095393;28;20027;-73
2021/12/30 02:33:32;;;;;;;30.58;10.38;;;11.80;92.90;;;;;;5095384;28;20446;-74
2021/12/30 02:35:58;;;;;;;34.15;10.80;;;11.90;93.00;;;;;;5095322;28;20055;-73
2021/12/30 02:38:24;;;;;;;25.75;9.95;;;11.90;93.00;;;;;;5095209;28;20057;-73
2021/12/30 02:40:53;;;;;;;31.20;10.20;;;11.90;93.00;;;;;;5095315;28;20514;-73
2021/12/30 02:43:22;;;;;;;30.83;10.02;;;11.90;93.00;;;;;;5113616;28;20023;-77
2021/12/30 02:45:48;;;;;;;27.83;9.55;;;11.90;93.00;;;;;;5095222;28;20510;-71
2021/12/30 02:48:33;;;;;;;27.05;9.68;;;11.90;93.00;;;;;;5095060;28;20062;-71
2021/12/30 02:51:02;;;;;;;26.48;9.90;;;11.90;93.00;;;;;;5095093;28;20046;-71
2021/12/30 02:53:28;;;;;;;25.80;8.63;;;11.90;93.00;;;;;;5095047;28;20007;-71
2021/12/30 02:55:55;;;;;;;26.98;8.60;;;11.90;93.00;;;;;;5092129;28;20036;-76
2021/12/30 02:58:22;;;;;;;22.05;8.60;;;12.00;93.00;;;;;;5113346;28;20546;-76
2021/12/30 03:00:50;;;;;;;26.85;8.18;;;11.90;93.00;;;;;;5113401;28;20024;-76
2021/12/30 03:03:21;;;;;;;25.58;8.65;;;12.00;93.00;;;;;;5095813;28;20073;-76
2021/12/30 03:05:48;;;;;;;31.25;9.00;;;12.00;93.00;;;;;;5117708;28;20034;-76
2021/12/30 03:08:15;;;;;;;30.80;8.45;;;12.00;93.00;;;;;;5099143;28;20023;-76
2021/12/30 03:10:41;;;;;;;26.35;8.50;;;12.00;93.00;;;;;;5099121;28;20047;-76
2021/12/30 03:13:09;;;;;;;25.38;7.90;;;12.00;93.00;;;;;;5117460;28;20095;-75
2021/12/30 03:15:36;;;;;;;27.45;8.80;;;12.00;93.00;;;;;;5099040;28;20024;-76
2021/12/30 03:18:02;;;;;;;24.42;8.45;;;12.00;93.00;;;;;;5099075;28;20027;-77
2021/12/30 03:20:32;;;;;;;20.60;8.65;;;12.10;93.00;;;;;;5117416;28;20024;-76
2021/12/30 03:22:58;;;;;;;25.48;8.98;;;12.10;93.00;;;;;;5117148;28;20023;-77
2021/12/30 03:25:24;;;;;;;19.95;7.82;;;12.10;93.00;;;;;;5117209;28;20028;-77
2021/12/30 03:27:49;;;;;;;23.10;8.23;;;12.00;92.90;;;;;;5098769;28;20047;-76
2021/12/30 03:30:17;;;;;;;26.25;8.55;;;12.10;93.00;;;;;;5117018;28;20024;-72
2021/12/30 03:32:44;;;;;;;19.10;8.30;;;12.10;93.00;;;;;;5098704;28;20012;-71
2021/12/30 03:35:09;;;;;;;25.45;8.90;;;12.10;93.00;;;;;;5098579;28;20019;-72
2021/12/30 03:37:35;;;;;;;21.50;8.02;;;12.10;93.00;;;;;;5098687;28;20026;-72
2021/12/30 03:40:03;;;;;;;25.75;9.40;;;12.10;93.00;;;;;;5098510;28;20027;-71
2021/12/30 03:42:28;;;;;;;25.50;9.43;;;12.00;92.90;;;;;;5116708;28;20024;-72
2021/12/30 03:44:57;;;;;;;26.83;9.57;;;12.10;93.00;;;;;;5098347;28;20028;-75
2021/12/30 03:47:22;;;;;;;25.70;10.02;;;12.10;93.00;;;;;;5116652;28;20479;-76
2021/12/30 03:49:48;;;;;;;21.45;9.65;;;12.10;93.00;;;;;;5098337;28;20012;-76
2021/12/30 03:52:19;;;;;;;24.55;9.70;;;12.00;93.00;;;;;;5095473;28;20027;-75
2021/12/30 03:54:46;;;;;;;21.65;9.35;;;12.10;93.00;;;;;;5116547;28;20051;-76
2021/12/30 03:57:11;;;;;;;22.33;9.57;;;12.10;93.00;;;;;;5098219;28;20028;-76
2021/12/30 03:59:37;;;;;;;19.50;8.00;;;12.10;93.00;;;;;;5098403;28;20028;-75
2021/12/30 04:02:03;;;;;;;18.98;9.02;;;12.10;93.00;;;;;;5116407;28;20054;-75
2021/12/30 04:04:28;;;;;;;20.58;8.60;;;12.10;93.00;;;;;;5098102;28;20368;-75
2021/12/30 04:06:54;;;;;;;19.02;9.57;;;12.10;93.10;;;;;;5097973;28;20122;-75
2021/12/30 04:09:19;;;;;;;17.48;9.20;;;12.10;93.00;;;;;;5116188;28;20024;-76
2021/12/30 04:11:45;;;;;;;18.85;9.45;;;12.10;93.10;;;;;;5098170;28;20027;-75
2021/12/30 04:14:11;;;;;;;19.95;8.82;;;12.10;93.10;;;;;;5097282;28;20077;-76
2021/12/30 04:16:36;;;;;;;16.05;9.05;;;12.10;93.10;;;;;;5097762;28;20072;-75
2021/12/30 04:19:04;;;;;;;19.90;8.80;;;12.10;93.00;;;;;;5097822;28;20031;-76
2021/12/30 04:21:30;;;;;;;21.60;9.40;;;12.10;93.10;;;;;;5116079;28;20027;-76
2021/12/30 04:23:55;;;;;;;20.08;9.23;;;12.10;93.00;;;;;;5097681;28;20031;-75
2021/12/30 04:26:21;;;;;;;17.60;8.50;;;12.20;93.10;;;;;;5097576;28;20115;-75
2021/12/30 04:28:47;;;;;;;17.15;9.05;;;12.20;93.10;;;;;;5097648;28;20012;-72
2021/12/30 04:31:13;;;;;;;22.13;9.88;;;12.20;93.10;;;;;;5097470;28;20507;-71
2021/12/30 04:33:39;;;;;;;18.52;8.90;;;12.20;93.10;;;;;;5097546;28;20020;-75
2021/12/30 04:36:06;;;;;;;17.25;8.55;;;12.20;93.10;;;;;;5115699;28;20027;-76
2021/12/30 04:38:32;;;;;;;16.00;8.48;;;12.20;93.10;;;;;;5115698;28;20020;-76
2021/12/30 04:40:58;;;;;;;19.42;8.70;;;12.20;93.10;;;;;;5097388;28;20487;-75
2021/12/30 04:43:25;;;;;;;17.23;8.77;;;12.20;93.10;;;;;;5115631;28;20027;-76
2021/12/30 04:45:51;;;;;;;15.27;8.60;;;12.30;93.10;;;;;;5115500;28;20479;-76
2021/12/30 04:48:17;;;;;;;16.75;8.50;;;12.30;93.10;;;;;;5097159;28;20019;-76
2021/12/30 04:50:46;;;;;;;13.25;7.97;;;12.30;93.10;;;;;;5115515;28;20065;-78
2021/12/30 04:53:13;;;;;;;12.00;7.88;;;12.30;93.10;;;;;;5115416;28;20024;-76
2021/12/30 04:55:39;;;;;;;11.15;7.15;;;12.30;93.10;;;;;;5096842;28;20035;-76
2021/12/30 04:58:05;;;;;;;12.23;7.13;;;12.30;93.10;;;;;;5115401;28;20034;-76
2021/12/30 05:00:32;;;;;;;13.40;7.30;;;12.30;93.10;;;;;;5097386;28;20051;-71
2021/12/30 05:03:08;;;;;;;12.05;7.07;;;12.30;93.20;;;;;;5115154;28;20051;-72
2021/12/30 05:05:45;;;;;;;10.05;6.25;;;12.40;93.20;;;;;;5096784;28;20111;-72
2021/12/30 05:08:12;;;;;;;10.68;6.28;;;12.40;93.20;;;;;;5096795;28;20024;-72
2021/12/30 05:10:39;;;;;;;9.05;6.25;;;12.40;93.20;;;;;;5096767;28;20548;-71
2021/12/30 05:13:06;;;;;;;9.38;6.10;;;12.40;93.20;;;;;;5096766;28;20102;-72
2021/12/30 05:15:33;;;;;;;10.05;5.97;;;12.40;93.30;;;;;;5096718;28;20016;-72
2021/12/30 05:17:58;;;;;;;8.25;5.30;;;12.40;93.30;;;;;;5096566;28;20051;-72
2021/12/30 05:20:25;;;;;;;8.35;5.32;;;12.40;93.20;;;;;;5114868;28;20016;-72
2021/12/30 05:22:51;;;;;;;7.47;5.07;;;12.40;93.20;;;;;;5096573;28;20019;-72
2021/12/30 05:25:18;;;;;;;7.15;4.80;;;12.40;93.30;;;;;;5114629;28;20386;-72
2021/12/30 05:27:45;;;;;;;7.13;4.82;;;12.40;93.30;;;;;;5113997;28;20026;-72
2021/12/30 05:30:13;;;;;;;7.13;5.22;;;12.40;93.30;;;;;;5096439;28;20080;-71
2021/12/30 05:32:40;;;;;;;7.28;5.00;;;12.50;93.30;;;;;;5096260;28;20020;-72
2021/12/30 05:35:08;;;;;;;6.80;4.50;;;12.50;93.30;;;;;;5114469;28;20015;-72
2021/12/30 05:37:34;;;;;;;7.38;4.25;;;12.50;93.30;;;;;;5096321;28;20036;-72
2021/12/30 05:40:00;;;;;;;5.28;3.67;;;12.50;93.30;;;;;;5114394;28;20416;-72
2021/12/30 05:42:29;;;;;;;6.22;4.45;;;12.50;93.30;;;;;;5114522;28;20042;-72
2021/12/30 05:44:55;;;;;;;4.40;3.70;;;12.50;93.30;;;;;;5096411;28;20031;-72
2021/12/30 05:47:22;;;;;;;6.40;4.15;;;12.50;93.30;;;;;;5096033;28;20032;-72
2021/12/30 05:49:48;;;;;;;5.22;3.95;;;12.50;93.30;;;;;;5114588;28;20016;-73
2021/12/30 05:52:14;;;;;;;5.80;4.32;;;12.50;93.30;;;;;;5096048;28;20016;-72
2021/12/30 05:54:41;;;;;;;4.60;3.40;;;12.50;93.40;;;;;;5114228;28;20123;-73
2021/12/30 05:57:08;;;;;;;4.82;3.50;;;12.50;93.40;;;;;;5095990;28;20019;-72
2021/12/30 05:59:33;;;;;;;5.57;3.90;;;12.50;93.40;;;;;;5095871;28;20064;-72
2021/12/30 06:01:59;;;;;;;4.97;3.60;;;12.60;93.80;;;;;;5114067;28;20482;-72
2021/12/30 06:04:25;;;;;;;5.55;4.28;;;12.50;93.50;;;;;;5095832;28;20027;-71
2021/12/30 06:06:51;;;;;;;8.25;5.80;;;12.50;93.50;;;;;;5113923;28;20020;-71
2021/12/30 06:09:17;;;;;;;7.47;5.45;;;12.50;93.60;;;;;;5095654;28;20011;-72
2021/12/30 06:11:42;;;;;;;6.38;5.78;;;12.60;93.70;;;;;;5113939;28;20023;-71
2021/12/30 06:14:08;;;;;;;7.75;6.75;;;12.60;93.70;;;;;;5113704;28;20023;-71
2021/12/30 06:16:33;;;;;;;9.93;7.40;;;12.60;93.70;;;;;;5095509;28;20019;-71
2021/12/30 06:18:59;;;;;;;11.43;7.78;;;12.60;93.80;;;;;;5095444;28;20409;-72
2021/12/30 06:21:26;;;;;;;9.60;7.97;;;12.60;93.80;;;;;;5095525;28;20027;-76
2021/12/30 06:23:52;;;;;;;11.45;8.57;;;12.60;93.80;;;;;;5095553;28;20016;-76
2021/12/30 06:26:18;;;;;;;9.63;8.25;;;12.60;93.80;;;;;;5095384;28;20026;-72
2021/12/30 06:28:43;;;;;;;9.43;7.95;;;12.60;93.80;;;;;;5092414;28;20023;-72
2021/12/30 06:31:09;;;;;;;10.63;8.55;;;12.60;93.80;;;;;;5113585;28;20095;-73
2021/12/30 06:33:35;;;;;;;12.93;9.98;;;12.60;93.80;;;;;;5095334;28;20474;-72
2021/12/30 06:36:00;;;;;;;11.57;10.30;;;12.70;93.80;;;;;;5095302;28;20062;-72
2021/12/30 06:38:26;;;;;;;12.40;10.65;;;12.60;93.80;;;;;;5113309;28;20028;-73
2021/12/30 06:40:51;;;;;;;12.63;11.32;;;12.60;93.80;;;;;;5113672;28;20047;-73
2021/12/30 06:43:17;;;;;;;13.13;11.50;;;12.70;93.90;;;;;;5095216;28;20119;-73
2021/12/30 06:45:44;;;;;;;14.48;12.15;;;12.70;93.90;;;;;;5095123;28;20022;-72
2021/12/30 06:48:16;;;;;;;12.70;11.10;;;12.70;93.90;;;;;;5095085;28;20041;-73
2021/12/30 06:50:51;;;;;;;12.82;10.50;;;12.70;94.00;;;;;;5095137;28;20391;-73
2021/12/30 06:53:17;;;;;;;8.68;7.00;;;12.70;94.00;;;;;;5095143;28;20364;-77
2021/12/30 06:55:45;;;;;;;6.80;6.10;;;12.80;94.00;;;;;;5094738;28;20384;-77
2021/12/30 06:58:10;;;;;;;5.18;4.30;;;12.80;94.00;;;;;;5094975;28;20418;-77
2021/12/30 07:00:37;;;;;;;3.97;3.40;;;12.80;94.00;;;;;;5113543;28;20027;-76
2021/12/30 07:03:03;;;;;;;4.78;3.50;;;12.80;94.00;;;;;;5113314;28;20502;-76
2021/12/30 07:05:29;;;;;;;5.38;3.33;;;12.80;93.90;;;;;;5094952;28;20020;-76
2021/12/30 07:07:54;;;;;;;3.88;3.10;;;12.80;93.90;;;;;;5113017;28;20495;-76
2021/12/30 07:10:20;;;;;;;5.68;3.13;;;12.80;93.80;;;;;;5113163;28;20019;-77
2021/12/30 07:12:46;;;;;;;4.10;3.33;;;12.80;93.90;;;;;;5113116;28;20063;-77
2021/12/30 07:15:11;;;;;;;4.60;3.15;;;12.80;93.80;;;;;;5095262;28;20126;-76
2021/12/30 07:17:37;;;;;;;4.40;3.20;;;12.80;93.80;;;;;;5113449;28;20022;-77
2021/12/30 07:20:06;;;;;;;4.30;3.35;;;12.80;93.80;;;;;;5113328;28;20084;-76
2021/12/30 07:22:32;;;;;;;3.70;3.10;;;12.80;93.80;;;;;;5095153;28;20024;-77
2021/12/30 07:24:57;;;;;;;3.10;2.80;;;12.80;93.90;;;;;;5094978;28;20084;-76
2021/12/30 07:30:45;;;;;;;4.75;4.15;;;12.80;93.90;;;;;;5113611;28;20026;-78
2021/12/30 07:33:11;;;;;;;5.15;4.28;;;12.80;93.90;;;;;;5094783;28;20123;-77
2021/12/30 07:35:36;;;;;;;5.03;4.38;;;12.80;93.90;;;;;;5113045;28;20022;-77
2021/12/30 07:38:03;;;;;;;5.70;4.53;;;12.80;94.10;;;;;;5094704;28;20101;-77
2021/12/30 07:40:29;;;;;;;8.27;5.20;;;12.80;93.90;;;;;;5113018;28;20015;-77
2021/12/30 07:42:55;;;;;;;9.10;6.22;;;12.80;93.90;;;;;;5094539;28;20020;-77
2021/12/30 07:45:21;;;;;;;8.65;5.80;;;12.80;93.90;;;;;;5094625;28;20408;-77
2021/12/30 07:47:47;;;;;;;7.20;5.05;;;12.80;93.90;;;;;;5094517;28;20031;-76
2021/12/30 07:50:13;;;;;;;8.65;5.68;;;12.80;93.90;;;;;;5096785;28;20169;-77
2021/12/30 07:52:39;;;;;;;7.53;6.38;;;12.80;93.90;;;;;;5098319;28;20023;-77
2021/12/30 07:55:06;;;;;;;9.43;6.18;;;12.80;93.90;;;;;;5116520;28;20040;-78
2021/12/30 07:57:31;;;;;;;10.35;7.10;;;12.90;93.90;;;;;;5098185;28;20032;-77
2021/12/30 07:59:57;;;;;;;10.50;8.38;;;12.90;93.90;;;;;;5116303;28;20024;-77
2021/12/30 08:02:23;;;;;;;8.50;7.60;;;12.90;93.90;;;;;;5116477;28;20103;-77
2021/12/30 08:04:50;;;;;;;10.48;8.90;;;12.90;93.80;;;;;;5098036;28;20383;-77
2021/12/30 08:07:20;;;;;;;13.90;10.05;;;12.90;93.80;;;;;;5097944;28;20078;-77
2021/12/30 08:09:46;;;;;;;11.00;9.30;;;13.00;93.90;;;;;;5098264;28;20020;-77
2021/12/30 08:12:12;;;;;;;13.23;9.35;;;12.90;93.90;;;;;;5116441;28;20092;-78
2021/12/30 08:14:37;;;;;;;13.85;9.15;;;13.00;93.90;;;;;;5097908;28;20023;-77
2021/12/30 08:17:03;;;;;;;13.48;9.68;;;13.00;93.90;;;;;;5116087;28;20448;-77
2021/12/30 08:19:30;;;;;;;12.27;10.00;;;13.00;93.90;;;;;;5116261;28;20030;-77
2021/12/30 08:21:56;;;;;;;12.15;8.85;;;13.00;94.00;;;;;;5115804;28;20046;-78
2021/12/30 08:27:24;;;;;;;9.52;7.45;;;13.20;94.00;;;;;;5116244;28;20039;-77
2021/12/30 08:29:50;;;;;;;9.68;7.30;;;13.20;94.00;;;;;;5097845;28;20020;-78
2021/12/30 08:32:16;;;;;;;9.77;7.00;;;13.20;94.00;;;;;;5097614;28;20368;-77
2021/12/30 08:34:44;;;;;;;11.82;8.10;;;13.20;93.90;;;;;;5097512;28;20382;-77
2021/12/30 08:37:11;;;;;;;8.85;6.70;;;13.30;93.90;;;;;;5116102;28;20048;-78
2021/12/30 08:39:37;;;;;;;7.40;6.57;;;13.30;93.90;;;;;;5097606;28;20031;-78
2021/12/30 08:42:04;;;;;;;7.13;5.95;;;13.30;93.80;;;;;;5097489;28;20030;-77
2021/12/30 08:44:30;;;;;;;6.78;6.00;;;13.40;93.80;;;;;;5097467;28;20034;-78
2021/12/30 08:46:56;;;;;;;7.45;5.90;;;13.40;93.70;;;;;;5097451;28;20024;-78
2021/12/30 08:49:22;;;;;;;6.90;5.70;;;13.40;93.70;;;;;;5115718;28;20031;-77
2021/12/30 08:51:48;;;;;;;6.85;5.32;;;13.40;93.60;;;;;;5097197;28;20106;-77
2021/12/30 08:54:14;;;;;;;5.70;4.82;;;13.40;93.60;;;;;;5097039;28;20112;-77
2021/12/30 08:56:39;;;;;;;6.03;5.43;;;13.50;93.50;;;;;;5115544;28;20098;-78
2021/12/30 08:59:05;;;;;;;6.80;5.18;;;13.50;93.50;;;;;;5115387;28;20380;-78
2021/12/30 09:01:31;;;;;;;6.13;5.15;;;13.50;93.40;;;;;;5115470;28;20027;-78
2021/12/30 09:03:56;;;;;;;6.25;5.30;;;13.50;93.40;;;;;;5115540;28;20444;-79
2021/12/30 09:06:22;;;;;;;5.45;4.95;;;13.50;93.40;;;;;;5097028;28;20098;-77
2021/12/30 09:08:47;;;;;;;6.32;5.28;;;13.50;93.30;;;;;;5096851;28;20054;-78
2021/12/30 09:11:13;;;;;;;7.47;5.43;;;13.50;93.30;;;;;;5115110;28;20386;-79
2021/12/30 09:13:39;;;;;;;5.22;4.60;;;13.60;93.20;;;;;;5096899;28;20022;-77
2021/12/30 09:16:04;;;;;;;8.00;5.03;;;13.60;93.20;;;;;;5096893;28;20060;-79
2021/12/30 09:18:30;;;;;;;7.95;5.22;;;13.60;93.10;;;;;;5115193;28;20024;-77
2021/12/30 09:20:56;;;;;;;8.73;5.25;;;13.60;93.00;;;;;;5096569;28;20055;-77
2021/12/30 09:23:22;;;;;;;7.13;5.15;;;13.60;93.00;;;;;;5096681;28;20471;-77
2021/12/30 09:25:48;;;;;;;5.70;4.30;;;13.60;92.90;;;;;;5115069;28;20027;-77
2021/12/30 09:28:14;;;;;;;7.00;4.68;;;13.60;92.90;;;;;;5096593;28;20024;-78
2021/12/30 09:30:45;;;;;;;7.00;4.90;;;13.60;92.80;;;;;;5114774;28;20015;-78
2021/12/30 09:33:15;;;;;;;10.50;4.40;;;13.60;92.80;;;;;;5096654;28;20467;-77
2021/12/30 09:35:42;;;;;;;6.25;4.35;;;13.60;92.80;;;;;;5096442;28;20020;-77
2021/12/30 09:38:07;;;;;;;7.53;4.00;;;13.60;92.70;;;;;;5096349;28;20019;-76
2021/12/30 09:40:36;;;;;;;6.30;3.78;;;13.70;92.80;;;;;;5096479;28;20499;-76
2021/12/30 09:43:04;;;;;;;5.40;3.63;;;13.70;92.70;;;;;;5096400;28;20076;-77
2021/12/30 09:45:33;;;;;;;5.18;3.50;;;13.70;92.70;;;;;;5096379;28;20012;-78
2021/12/30 09:48:00;;;;;;;7.85;3.35;;;13.60;92.60;;;;;;5096274;28;20046;-78
2021/12/30 09:50:30;;;;;;;6.45;3.13;;;13.70;92.70;;;;;;5096264;28;20029;-76
2021/12/30 09:52:57;;;;;;;7.55;3.47;;;13.70;92.60;;;;;;5096239;28;20035;-76
2021/12/30 09:55:25;;;;;;;6.97;2.85;;;13.70;92.60;;;;;;5114573;28;20040;-77
2021/12/30 09:57:51;;;;;;;9.55;3.22;;;13.80;92.60;;;;;;5096149;28;20015;-77
2021/12/30 10:00:17;;;;;;;7.45;3.08;;;13.80;92.50;;;;;;5096336;28;20026;-77
2021/12/30 10:02:45;;;;;;;7.32;2.80;;;13.80;92.50;;;;;;5114652;28;20107;-77
2021/12/30 10:05:17;;;;;;;7.05;2.97;;;13.90;92.40;;;;;;5096041;28;20104;-77
2021/12/30 10:07:43;;;;;;;5.53;2.85;;;13.90;92.30;;;;;;5114201;28;20027;-76
2021/12/30 10:10:32;;;;;;;5.93;2.83;;;14.00;92.30;;;;;;5095940;28;20023;-77
2021/12/30 10:13:00;;;;;;;6.80;2.97;;;14.00;92.10;;;;;;5095291;28;20043;-76
2021/12/30 10:15:29;;;;;;;5.35;2.78;;;14.00;92.10;;;;;;5093287;28;20058;-76
2021/12/30 10:17:59;;;;;;;5.45;2.30;;;14.00;92.10;;;;;;5095934;28;20027;-76
2021/12/30 10:20:31;;;;;;;5.25;2.35;;;14.00;92.10;;;;;;5114138;28;20088;-76
2021/12/30 10:23:18;;;;;;;7.40;2.50;;;14.00;92.10;;;;;;5095795;28;20059;-76
2021/12/30 10:25:47;;;;;;;6.07;2.80;;;14.00;92.10;;;;;;5113861;28;20024;-77
2021/12/30 10:28:17;;;;;;;8.32;2.88;;;14.00;92.00;;;;;;5113960;28;20053;-76
2021/12/30 10:30:43;;;;;;;5.82;2.70;;;14.00;92.00;;;;;;5095578;28;20020;-78
2021/12/30 10:33:11;;;;;;;7.88;2.58;;;14.00;92.00;;;;;;5113752;28;20019;-77
2021/12/30 10:35:37;;;;;;;6.47;2.60;;;14.00;92.00;;;;;;5095420;28;20012;-76
2021/12/30 10:38:08;;;;;;;10.57;2.60;;;14.00;92.00;;;;;;5095503;28;20360;-76
2021/12/30 10:40:34;;;;;;;10.50;2.70;;;14.00;91.90;;;;;;5095531;28;20022;-77
2021/12/30 10:43:27;;;;;;;5.53;2.50;;;14.00;91.80;;;;;;5095321;28;20020;-77
2021/12/30 10:46:09;;;;;;;7.57;3.10;;;14.00;91.70;;;;;;5083286;28;20023;-76
2021/12/30 10:48:46;;;;;;;7.65;2.80;;;14.00;91.70;;;;;;5113625;28;20606;-78
2021/12/30 10:51:17;;;;;;;6.78;2.92;;;14.00;91.60;;;;;;5113655;28;20498;-77
2021/12/30 10:53:43;;;;;;;7.90;3.30;;;14.00;91.70;;;;;;5095267;28;20054;-77
2021/12/30 10:56:24;;;;;;;7.72;3.60;;;14.00;91.60;;;;;;5095089;28;20521;-77
2021/12/30 10:58:54;;;;;;;7.70;3.47;;;14.00;91.50;;;;;;5113521;28;20023;-77
2021/12/30 11:01:21;;;;;;;8.27;3.10;;;14.10;91.40;;;;;;5095052;28;20118;-77
2021/12/30 11:04:00;;;;;;;7.78;3.10;;;14.10;91.40;;;;;;5095290;28;20038;-77
2021/12/30 11:06:26;;;;;;;7.85;3.67;;;14.10;91.40;;;;;;5095135;28;20058;-77
2021/12/30 11:09:11;;;;;;;9.05;3.78;;;14.10;91.40;;;;;;5095222;28;20020;-77
2021/12/30 11:11:41;;;;;;;9.63;3.53;;;14.10;91.30;;;;;;5095153;28;20026;-77
2021/12/30 11:14:09;;;;;;;7.88;3.38;;;14.10;91.20;;;;;;5113410;28;20390;-77
2021/12/30 11:17:04;;;;;;;8.93;3.30;;;14.10;91.20;;;;;;5113382;28;20039;-77
2021/12/30 11:19:34;;;;;;;6.63;3.28;;;14.10;91.20;;;;;;5113751;28;20035;-77
2021/12/30 11:22:01;;;;;;;7.18;3.50;;;14.10;91.20;;;;;;5113197;28;20055;-77
2021/12/30 11:24:29;;;;;;;6.10;2.97;;;14.10;91.10;;;;;;5114266;28;20027;-77
2021/12/30 11:26:55;;;;;;;8.93;3.55;;;14.10;91.20;;;;;;5116996;28;20096;-77
2021/12/30 11:29:22;;;;;;;8.85;3.40;;;14.10;91.10;;;;;;5098922;28;20024;-76
2021/12/30 11:31:48;;;;;;;7.80;2.95;;;14.10;91.00;;;;;;5117177;28;20023;-77
2021/12/30 11:34:13;;;;;;;12.13;3.25;;;14.10;91.30;;;;;;5098826;28;20077;-77
2021/12/30 11:36:39;;;;;;;8.85;3.40;;;14.10;91.00;;;;;;5098973;28;20031;-77
2021/12/30 11:39:13;;;;;;;11.35;3.03;;;14.10;91.00;;;;;;5098775;28;20482;-76
2021/12/30 11:41:42;;;;;;;9.23;3.53;;;14.10;90.90;;;;;;5117122;28;20439;-77
2021/12/30 11:44:07;;;;;;;8.25;3.00;;;14.10;90.90;;;;;;5098719;28;20080;-78
2021/12/30 11:47:23;;;;;;;9.65;3.30;;;14.10;90.90;;;;;;5098654;28;20118;-78
2021/12/30 11:50:02;;;;;;;8.85;2.80;;;14.20;90.90;;;;;;5098570;28;20486;-78
2021/12/30 11:52:49;;;;;;;6.30;2.40;;;14.20;90.90;;;;;;5098458;28;20498;-77
2021/12/30 11:55:49;;;;;;;7.22;2.70;;;14.20;90.90;;;;;;5116661;28;20043;-78
2021/12/30 11:58:32;;;;;;;9.65;2.47;;;14.20;90.90;;;;;;5098462;28;20032;-78
2021/12/30 12:01:00;;;;;;;8.68;2.67;;;14.20;90.90;;;;;;5116710;28;20058;-78
2021/12/30 12:03:52;;;;;;;10.40;2.85;;;14.20;91.00;;;;;;5098346;28;20486;-77
2021/12/30 12:06:31;;;;;;;8.02;2.78;;;14.20;91.00;;;;;;5085112;28;20035;-78
2021/12/30 12:09:14;;;;;;;8.23;2.75;;;14.20;91.00;;;;;;5098339;28;20073;-78
2021/12/30 12:11:54;;;;;;;7.43;2.50;;;14.20;91.00;;;;;;5098327;28;20023;-77
2021/12/30 12:14:44;;;;;;;8.40;2.65;;;14.20;91.00;;;;;;5098217;28;20029;-78
2021/12/30 12:17:17;;;;;;;7.60;2.80;;;14.20;91.00;;;;;;5098274;28;20031;-79
2021/12/30 12:19:47;;;;;;;7.13;2.80;;;14.20;91.00;;;;;;5098276;28;20030;-78
2021/12/30 12:22:18;;;;;;;10.77;2.67;;;14.20;90.90;;;;;;5098149;28;20431;-78
2021/12/30 12:24:46;;;;;;;8.25;2.90;;;14.20;90.90;;;;;;5098196;28;20499;-78
2021/12/30 12:27:30;;;;;;;6.45;2.80;;;14.20;90.90;;;;;;5116061;28;20097;-78
2021/12/30 12:29:57;;;;;;;6.13;2.80;;;14.20;90.90;;;;;;5098209;28;20106;-78
2021/12/30 12:32:34;;;;;;;6.90;2.40;;;14.20;90.80;;;;;;5097953;28;20119;-78
2021/12/30 12:35:04;;;;;;;8.10;2.78;;;14.10;90.80;;;;;;5097341;28;20111;-77
2021/12/30 12:37:32;;;;;;;7.55;3.03;;;14.20;90.80;;;;;;5098121;28;20040;-77
2021/12/30 12:40:01;;;;;;;5.68;2.50;;;14.20;90.80;;;;;;5116379;28;20460;-78
2021/12/30 12:42:48;;;;;;;6.07;2.95;;;14.20;90.80;;;;;;5116091;28;20035;-77
2021/12/30 12:45:28;;;;;;;5.72;2.60;;;14.20;90.70;;;;;;5097949;28;20035;-79
2021/12/30 12:48:22;;;;;;;8.35;2.80;;;14.20;90.70;;;;;;5097727;28;20391;-79
2021/12/30 12:50:52;;;;;;;7.55;2.60;;;14.20;90.70;;;;;;5116173;28;20032;-78
2021/12/30 12:53:24;;;;;;;7.75;2.53;;;14.20;90.70;;;;;;5098035;28;20543;-79